createdAt,value
2023-05-04T00:00:54.339Z,101870.28
2023-05-04T00:05:57.200Z,101886.31
2023-05-04T00:11:00.108Z,101884.03
2023-05-04T00:16:03.217Z,101880.91
2023-05-04T00:21:06.807Z,101879.38
2023-05-04T00:26:09.738Z,101873.78
2023-05-04T00:31:13.576Z,101874.16
2023-05-04T00:36:16.564Z,101870.75
2023-05-04T00:41:20.298Z,101871.72
2023-05-04T00:46:23.627Z,101879.16
2023-05-04T00:51:27.546Z,101875.22
2023-05-04T00:56:30.767Z,101872.97
2023-05-04T01:01:33.618Z,101869.13
2023-05-04T01:06:48.396Z,101872.00
2023-05-04T01:12:00.638Z,101875.63
2023-05-04T01:17:05.876Z,101867.91
2023-05-04T01:22:08.846Z,101866.38
2023-05-04T01:27:22.999Z,101867.34
2023-05-04T01:32:28.519Z,101867.44
2023-05-04T01:37:34.015Z,101848.44
2023-05-04T01:42:36.903Z,101856.81
2023-05-04T01:47:40.773Z,101850.44
2023-05-04T01:52:43.785Z,101856.47
2023-05-04T01:57:47.178Z,101846.97
2023-05-04T02:02:50.169Z,101844.59
2023-05-04T02:07:55.448Z,101848.09
2023-05-04T02:12:58.485Z,101843.00
2023-05-04T02:18:01.782Z,101839.31
2023-05-04T02:23:04.743Z,101837.31
2023-05-04T02:28:07.843Z,101831.00
2023-05-04T02:33:11.201Z,101831.41
2023-05-04T02:38:14.214Z,101827.38
2023-05-04T02:43:17.636Z,101833.69
2023-05-04T02:48:20.397Z,101826.47
2023-05-04T02:53:23.717Z,101820.34
2023-05-04T02:58:26.746Z,101824.16
2023-05-04T03:03:29.972Z,101827.94
2023-05-04T03:08:32.940Z,101830.63
2023-05-04T03:13:35.922Z,101824.50
2023-05-04T03:23:59.972Z,101819.91
2023-05-04T03:29:03.644Z,101817.13
2023-05-04T03:34:06.757Z,101804.72
2023-05-04T03:39:09.913Z,101802.66
2023-05-04T03:44:12.886Z,101802.91
2023-05-04T03:49:16.190Z,101808.06
2023-05-04T03:54:19.648Z,101800.00
2023-05-04T03:59:22.680Z,101786.25
2023-05-04T04:04:26.070Z,101782.22
2023-05-04T04:09:29.395Z,101777.78
2023-05-04T04:14:32.689Z,101772.59
2023-05-04T04:19:35.818Z,101771.44
2023-05-04T04:24:38.780Z,101757.63
2023-05-04T04:29:41.971Z,101760.47
2023-05-04T04:34:45.340Z,101745.69
2023-05-04T04:39:48.320Z,101748.69
2023-05-04T04:44:52.624Z,101749.25
2023-05-04T04:49:55.700Z,101745.69
2023-05-04T04:54:58.541Z,101744.78
2023-05-04T05:00:02.220Z,101736.84
2023-05-04T05:05:08.424Z,101735.09
2023-05-04T05:10:11.645Z,101728.34
2023-05-04T05:15:14.799Z,101724.81
2023-05-04T05:20:17.714Z,101713.97
2023-05-04T05:25:20.773Z,101705.28
2023-05-04T05:30:23.763Z,101696.66
2023-05-04T05:35:26.613Z,101682.78
2023-05-04T05:40:29.827Z,101675.84
2023-05-04T05:45:32.632Z,101671.31
2023-05-04T05:50:35.690Z,101665.44
2023-05-04T05:55:38.565Z,101657.94
2023-05-04T06:00:41.465Z,101663.84
2023-05-04T06:05:44.484Z,101655.31
2023-05-04T06:10:47.386Z,101656.31
2023-05-04T06:15:54.161Z,101647.28
2023-05-04T06:21:01.059Z,101640.81
2023-05-04T06:26:08.636Z,101642.63
2023-05-04T06:31:11.466Z,101643.47
2023-05-04T06:36:14.586Z,101634.25
2023-05-04T06:41:19.923Z,101636.91
2023-05-04T06:46:22.745Z,101631.72
2023-05-04T06:51:25.747Z,101628.31
2023-05-04T06:56:28.595Z,101621.41
2023-05-04T07:01:31.669Z,101631.72
2023-05-04T07:06:34.725Z,101627.16
2023-05-04T07:11:37.768Z,101625.50
2023-05-04T07:16:41.029Z,101618.56
2023-05-04T07:21:44.084Z,101609.53
2023-05-04T07:26:46.986Z,101615.94
2023-05-04T07:31:49.876Z,101620.34
2023-05-04T07:36:52.728Z,101622.38
2023-05-04T07:41:55.555Z,101609.88
2023-05-04T07:47:02.165Z,101601.81
2023-05-04T07:52:05.678Z,101599.38
2023-05-04T07:57:08.544Z,101585.53
2023-05-04T08:02:12.131Z,101581.94
2023-05-04T08:07:19.286Z,101571.34
2023-05-04T08:12:22.305Z,101564.00
2023-05-04T08:17:25.490Z,101544.22
2023-05-04T08:22:28.309Z,101558.06
2023-05-04T08:27:31.267Z,101559.06
2023-05-04T08:32:34.196Z,101541.97
2023-05-04T08:37:37.757Z,101544.78
2023-05-04T08:42:40.841Z,101545.69
2023-05-04T08:47:43.923Z,101548.06
2023-05-04T08:52:47.666Z,101537.22
2023-05-04T08:57:51.336Z,101527.66
2023-05-04T09:02:54.674Z,101523.44
2023-05-04T09:07:58.637Z,101527.13
2023-05-04T09:13:01.593Z,101533.06
2023-05-04T09:18:06.284Z,101533.38
2023-05-04T09:23:09.951Z,101536.47
2023-05-04T09:28:14.584Z,101530.75
2023-05-04T09:33:17.500Z,101530.34
2023-05-04T09:38:27.334Z,101527.16
2023-05-04T09:43:45.186Z,101518.09
2023-05-04T09:48:52.863Z,101525.53
2023-05-04T09:53:58.801Z,101510.56
2023-05-04T09:59:02.381Z,101522.22
2023-05-04T10:04:05.520Z,101523.03
2023-05-04T10:09:08.752Z,101517.03
2023-05-04T10:14:11.746Z,101509.28
2023-05-04T10:19:45.091Z,101499.78
2023-05-04T10:25:20.688Z,101489.50
2023-05-04T10:30:24.032Z,101480.44
2023-05-04T10:35:28.256Z,101471.47
2023-05-04T10:40:37.828Z,101484.66
2023-05-04T10:45:42.249Z,101468.75
2023-05-04T10:50:50.302Z,101460.06
2023-05-04T10:55:53.481Z,101447.34
2023-05-04T11:00:56.710Z,101439.69
2023-05-04T11:05:59.862Z,101445.84
2023-05-04T11:11:07.036Z,101446.78
2023-05-04T11:16:13.028Z,101426.16
2023-05-04T11:21:36.341Z,101434.22
2023-05-04T11:26:49.703Z,101437.66
2023-05-04T11:31:56.736Z,101431.34
2023-05-04T11:36:59.883Z,101435.19
2023-05-04T11:42:08.135Z,101433.66
2023-05-04T11:47:11.051Z,101433.84
2023-05-04T11:52:13.909Z,101426.44
2023-05-04T11:57:23.819Z,101426.44
2023-05-04T12:02:27.403Z,101429.09
2023-05-04T12:07:30.649Z,101429.03
2023-05-04T12:12:37.061Z,101425.44
2023-05-04T12:17:41.930Z,101427.66
2023-05-04T12:22:44.909Z,101427.28
2023-05-04T12:27:47.801Z,101420.00
2023-05-04T12:32:50.651Z,101418.78
2023-05-04T12:37:53.867Z,101416.81
2023-05-04T12:42:57.114Z,101417.56
2023-05-04T12:48:00.278Z,101408.78
2023-05-04T12:53:04.897Z,101400.53
2023-05-04T12:58:07.804Z,101396.75
2023-05-04T13:03:13.211Z,101404.31
2023-05-04T13:08:18.933Z,101399.84
2023-05-04T13:13:26.565Z,101399.56
2023-05-04T13:18:29.541Z,101385.44
2023-05-04T13:23:32.406Z,101391.19
2023-05-04T13:28:36.288Z,101377.22
2023-05-04T13:33:41.621Z,101373.38
2023-05-04T13:38:44.511Z,101360.81
2023-05-04T13:43:47.458Z,101361.03
2023-05-04T13:48:50.479Z,101345.19
2023-05-04T13:53:53.311Z,101347.22
2023-05-04T13:58:56.348Z,101363.25
2023-05-04T14:03:59.408Z,101343.94
2023-05-04T14:09:02.335Z,101357.50
2023-05-04T14:14:05.155Z,101367.81
2023-05-04T14:19:08.084Z,101358.41
2023-05-04T14:24:11.095Z,101364.47
2023-05-04T14:29:14.016Z,101359.78
2023-05-04T14:34:17.314Z,101367.88
2023-05-04T14:39:20.243Z,101364.63
2023-05-04T14:44:23.674Z,101357.53
2023-05-04T14:49:36.758Z,101369.00
2023-05-04T14:54:43.521Z,101370.97
2023-05-04T14:59:46.326Z,101383.28
2023-05-04T15:04:49.605Z,101372.25
2023-05-04T15:09:52.510Z,101364.72
2023-05-04T15:14:55.438Z,101369.22
2023-05-04T15:19:58.436Z,101384.16
2023-05-04T15:25:02.294Z,101387.09
2023-05-04T15:30:09.311Z,101382.44
2023-05-04T15:35:12.368Z,101372.53
2023-05-04T15:40:15.427Z,101370.88
2023-05-04T15:45:18.701Z,101391.06
2023-05-04T15:50:22.197Z,101392.38
2023-05-04T15:55:26.284Z,101387.38
2023-05-04T16:00:30.127Z,101379.16
2023-05-04T16:05:33.162Z,101374.84
2023-05-04T16:10:36.653Z,101379.72
2023-05-04T16:15:40.407Z,101376.88
2023-05-04T16:20:43.442Z,101378.56
2023-05-04T16:25:46.356Z,101380.22
2023-05-04T16:30:50.060Z,101371.50
2023-05-04T16:35:53.552Z,101355.47
2023-05-04T16:40:56.508Z,101353.50
2023-05-04T16:45:59.613Z,101346.09
2023-05-04T16:51:02.532Z,101350.50
2023-05-04T16:56:06.061Z,101347.09
2023-05-04T17:01:10.955Z,101340.41
2023-05-04T17:06:14.195Z,101342.97
2023-05-04T17:11:17.246Z,101332.56
2023-05-04T17:16:20.153Z,101335.00
2023-05-04T17:21:23.219Z,101329.16
2023-05-04T17:26:26.376Z,101307.03
2023-05-04T17:31:29.362Z,101311.72
2023-05-04T17:36:32.769Z,101307.50
2023-05-04T17:41:35.827Z,101318.47
2023-05-04T17:46:38.921Z,101305.81
2023-05-04T17:51:41.894Z,101304.91
2023-05-04T17:56:44.723Z,101296.78
2023-05-04T18:01:47.580Z,101288.13
2023-05-04T18:06:51.014Z,101292.31
2023-05-04T18:11:54.029Z,101275.97
2023-05-04T18:16:57.148Z,101274.09
2023-05-04T18:22:00.150Z,101277.34
2023-05-04T18:27:03.445Z,101271.38
2023-05-04T18:32:09.318Z,101263.47
2023-05-04T18:37:12.325Z,101260.16
2023-05-04T18:42:15.255Z,101261.81
2023-05-04T18:47:18.169Z,101262.63
2023-05-04T18:52:22.168Z,101256.47
2023-05-04T18:57:25.143Z,101259.47
2023-05-04T19:02:30.342Z,101257.59
2023-05-04T19:07:33.335Z,101248.75
2023-05-04T19:12:36.782Z,101230.72
2023-05-04T19:17:39.782Z,101222.19
2023-05-04T19:22:42.737Z,101218.34
2023-05-04T19:27:47.437Z,101221.94
2023-05-04T19:32:51.056Z,101220.81
2023-05-04T19:37:54.771Z,101214.28
2023-05-04T19:42:57.717Z,101214.50
2023-05-04T19:48:00.690Z,101216.66
2023-05-04T19:53:05.185Z,101197.56
2023-05-04T19:58:08.151Z,101196.88
2023-05-04T20:03:11.280Z,101192.44
2023-05-04T20:08:14.416Z,101187.25
2023-05-04T20:13:17.391Z,101188.28
2023-05-04T20:18:20.532Z,101184.34
2023-05-04T20:23:23.603Z,101187.56
2023-05-04T20:28:26.605Z,101171.38
2023-05-04T20:33:29.476Z,101179.13
2023-05-04T20:38:32.912Z,101179.34
2023-05-04T20:43:36.330Z,101172.59
2023-05-04T20:48:39.496Z,101178.34
2023-05-04T20:53:42.757Z,101177.44
2023-05-04T20:58:45.558Z,101171.78
2023-05-04T21:03:48.932Z,101165.53
2023-05-04T21:08:51.926Z,101167.69
2023-05-04T21:13:54.806Z,101175.78
2023-05-04T21:18:57.636Z,101170.06
2023-05-04T21:24:00.549Z,101156.53
2023-05-04T21:29:03.484Z,101137.66
2023-05-04T21:34:06.758Z,101159.91
2023-05-04T21:39:09.651Z,101164.13
2023-05-04T21:44:15.905Z,101156.59
2023-05-04T21:49:19.752Z,101160.13
2023-05-04T21:54:24.097Z,101155.94
2023-05-04T21:59:26.967Z,101155.94
2023-05-04T22:04:30.746Z,101149.16
2023-05-04T22:09:33.695Z,101160.34
2023-05-04T22:14:36.735Z,101156.13
2023-05-04T22:19:39.672Z,101151.03
2023-05-04T22:24:42.963Z,101140.03
2023-05-04T22:29:45.805Z,101147.00
2023-05-04T22:34:48.649Z,101145.25
2023-05-04T22:39:51.463Z,101157.25
2023-05-04T22:44:54.216Z,101161.50
2023-05-04T22:49:57.397Z,101158.09
2023-05-04T22:55:00.149Z,101162.22
2023-05-04T23:00:08.310Z,101159.56
2023-05-04T23:05:11.485Z,101160.25
2023-05-04T23:10:14.325Z,101185.03
2023-05-04T23:15:18.545Z,101209.59
2023-05-04T23:20:21.473Z,101210.50
2023-05-04T23:25:24.382Z,101198.75
2023-05-04T23:30:27.289Z,101206.66
2023-05-04T23:35:30.117Z,101200.00
2023-05-04T23:40:33.192Z,101224.09
2023-05-04T23:45:36.048Z,101223.72
2023-05-04T23:50:39.335Z,101216.59
2023-05-04T23:55:42.130Z,101196.47
